Time;durP1;ratioP1;P1;durP2;ratioP2;P2;SDS_P1;SDS_P2;PMS_P1;PMS_P2;Temp;Humidity;BMP_temperature;BMP_pressure;BME280_temperature;BME280_humidity;BME280_pressure;Samples;Min_cycle;Max_cycle;Signal;HPM_P1;HPM_P2
2023/08/18 00:00:52;;;;;;;0.20;0.20;;;;;;;;;;5013516;28;20050;-65
2023/08/18 00:03:18;;;;;;;0.10;0.10;;;;;;;;;;5013779;28;20420;-65
2023/08/18 00:05:44;;;;;;;0.10;0.10;;;;;;;;;;5015398;28;20053;-65
2023/08/18 00:08:10;;;;;;;0.10;0.10;;;;;;;;;;5016708;28;20084;-65
2023/08/18 00:10:36;;;;;;;0.20;0.20;;;;;;;;;;5015806;28;20280;-65
2023/08/18 00:13:02;;;;;;;0.30;0.30;;;;;;;;;;5012207;28;20037;-64
2023/08/18 00:15:28;;;;;;;0.35;0.25;;;;;;;;;;5012803;28;20044;-64
2023/08/18 00:17:54;;;;;;;0.20;0.20;;;;;;;;;;5014672;28;20038;-64
2023/08/18 00:20:21;;;;;;;0.15;0.13;;;;;;;;;;5016383;28;20411;-65
2023/08/18 00:22:47;;;;;;;0.13;0.10;;;;;;;;;;5016646;28;20094;-64
2023/08/18 00:25:13;;;;;;;0.20;0.17;;;;;;;;;;5012196;28;20025;-64
2023/08/18 00:27:39;;;;;;;0.20;0.20;;;;;;;;;;5013113;28;20038;-64
2023/08/18 00:30:05;;;;;;;0.20;0.20;;;;;;;;;;5014158;28;20072;-65
2023/08/18 00:32:31;;;;;;;0.20;0.20;;;;;;;;;;5015892;28;20041;-64
2023/08/18 00:34:57;;;;;;;0.80;0.30;;;;;;;;;;5016002;28;20033;-64
2023/08/18 00:37:23;;;;;;;0.30;0.30;;;;;;;;;;5012167;28;20042;-64
2023/08/18 00:39:49;;;;;;;0.52;0.30;;;;;;;;;;5013064;28;20125;-64
2023/08/18 00:42:15;;;;;;;0.13;0.13;;;;;;;;;;5014572;28;20048;-64
2023/08/18 00:44:41;;;;;;;0.32;0.30;;;;;;;;;;5016158;28;20033;-64
2023/08/18 00:47:08;;;;;;;0.40;0.20;;;;;;;;;;5015284;28;20048;-64
2023/08/18 00:49:34;;;;;;;0.63;0.28;;;;;;;;;;5012595;28;20030;-64
2023/08/18 00:52:00;;;;;;;0.20;0.20;;;;;;;;;;5012543;28;20065;-64
2023/08/18 00:54:27;;;;;;;0.20;0.20;;;;;;;;;;5013076;28;20180;-64
2023/08/18 00:56:54;;;;;;;0.20;0.20;;;;;;;;;;5015185;28;20530;-64
2023/08/18 00:59:20;;;;;;;0.30;0.30;;;;;;;;;;5015618;28;20049;-64
2023/08/18 01:01:46;;;;;;;0.63;0.35;;;;;;;;;;5014826;28;20052;-64
2023/08/18 01:04:13;;;;;;;0.30;0.22;;;;;;;;;;5015335;28;20065;-65
2023/08/18 01:06:39;;;;;;;0.22;0.20;;;;;;;;;;5013990;28;20076;-65
2023/08/18 01:09:06;;;;;;;0.22;0.22;;;;;;;;;;5011332;28;20061;-65
2023/08/18 01:11:44;;;;;;;0.30;0.20;;;;;;;;;;5012262;28;20129;-65
2023/08/18 01:14:23;;;;;;;0.30;0.25;;;;;;;;;;5011693;28;20034;-64
2023/08/18 01:16:52;;;;;;;0.10;0.10;;;;;;;;;;5014313;28;20049;-64
2023/08/18 01:19:21;;;;;;;0.22;0.22;;;;;;;;;;5015960;28;20038;-64
2023/08/18 01:21:53;;;;;;;0.30;0.22;;;;;;;;;;5013639;28;20095;-64
2023/08/18 01:24:19;;;;;;;0.30;0.30;;;;;;;;;;5012522;28;20049;-64
2023/08/18 01:26:45;;;;;;;0.30;0.30;;;;;;;;;;5012466;28;20459;-64
2023/08/18 01:29:11;;;;;;;0.20;0.20;;;;;;;;;;5014546;28;20040;-64
2023/08/18 01:31:38;;;;;;;0.32;0.28;;;;;;;;;;5015530;28;20046;-64
2023/08/18 01:34:09;;;;;;;0.30;0.30;;;;;;;;;;5012832;28;20045;-64
2023/08/18 01:36:39;;;;;;;0.30;0.30;;;;;;;;;;5017289;28;20132;-64
2023/08/18 01:39:06;;;;;;;0.25;0.25;;;;;;;;;;5014439;28;20827;-64
2023/08/18 01:41:33;;;;;;;0.20;0.20;;;;;;;;;;5012627;28;20069;-64
2023/08/18 01:44:02;;;;;;;0.30;0.25;;;;;;;;;;5011940;28;20057;-64
2023/08/18 01:46:28;;;;;;;0.20;0.20;;;;;;;;;;5014998;28;20041;-64
2023/08/18 01:48:54;;;;;;;0.20;0.20;;;;;;;;;;5017930;28;20041;-64
2023/08/18 01:51:20;;;;;;;0.17;0.17;;;;;;;;;;5017107;28;20406;-64
2023/08/18 01:53:46;;;;;;;0.28;0.20;;;;;;;;;;5015707;28;20096;-64
2023/08/18 01:56:12;;;;;;;0.10;0.10;;;;;;;;;;5015335;28;20131;-64
2023/08/18 01:58:38;;;;;;;0.30;0.30;;;;;;;;;;5017817;28;20742;-65
2023/08/18 02:01:04;;;;;;;0.17;0.17;;;;;;;;;;5019269;28;20045;-65
2023/08/18 02:03:31;;;;;;;0.10;0.10;;;;;;;;;;5017788;28;20122;-65
2023/08/18 02:05:57;;;;;;;0.10;0.10;;;;;;;;;;5015558;28;20136;-65
2023/08/18 02:08:24;;;;;;;0.20;0.20;;;;;;;;;;5015268;28;20092;-64
2023/08/18 02:10:50;;;;;;;0.20;0.20;;;;;;;;;;5018116;28;20053;-64
2023/08/18 02:13:16;;;;;;;0.10;0.10;;;;;;;;;;5017942;28;20041;-64
2023/08/18 02:15:45;;;;;;;0.25;0.22;;;;;;;;;;5017351;28;20045;-65
2023/08/18 02:18:11;;;;;;;0.30;0.10;;;;;;;;;;5014273;28;20044;-65
2023/08/18 02:20:38;;;;;;;0.20;0.20;;;;;;;;;;5004844;28;20072;-64
2023/08/18 02:23:04;;;;;;;0.10;0.10;;;;;;;;;;5017490;28;20505;-64
2023/08/18 02:25:30;;;;;;;0.20;0.20;;;;;;;;;;5010999;28;20046;-64
2023/08/18 02:27:56;;;;;;;0.20;0.20;;;;;;;;;;5015573;28;20100;-64
2023/08/18 02:30:22;;;;;;;0.20;0.10;;;;;;;;;;5018402;28;20069;-64
2023/08/18 02:32:48;;;;;;;0.40;0.20;;;;;;;;;;5018343;28;20045;-64
2023/08/18 02:35:14;;;;;;;0.30;0.20;;;;;;;;;;5015685;28;20215;-64
2023/08/18 02:37:40;;;;;;;0.20;0.20;;;;;;;;;;5015660;28;20151;-64
2023/08/18 02:40:08;;;;;;;0.20;0.20;;;;;;;;;;5015553;28;20133;-64
2023/08/18 02:42:35;;;;;;;0.20;0.20;;;;;;;;;;5018222;28;20042;-64
2023/08/18 02:45:01;;;;;;;0.25;0.22;;;;;;;;;;5017911;28;20046;-64
2023/08/18 02:47:27;;;;;;;0.20;0.20;;;;;;;;;;5014364;28;20654;-64
2023/08/18 02:49:53;;;;;;;0.40;0.30;;;;;;;;;;5015158;28;20044;-64
2023/08/18 02:52:19;;;;;;;0.25;0.17;;;;;;;;;;5015733;28;20049;-64
2023/08/18 02:54:45;;;;;;;0.32;0.25;;;;;;;;;;5017364;28;20029;-64
2023/08/18 02:57:11;;;;;;;0.30;0.30;;;;;;;;;;5017576;28;20064;-64
2023/08/18 02:59:38;;;;;;;0.15;0.15;;;;;;;;;;5014808;28;20072;-64
2023/08/18 03:02:04;;;;;;;0.47;0.10;;;;;;;;;;5018458;28;20037;-64
2023/08/18 03:04:30;;;;;;;0.45;0.10;;;;;;;;;;5017339;28;20470;-64
2023/08/18 03:06:56;;;;;;;0.20;0.20;;;;;;;;;;5016944;28;20049;-65
2023/08/18 03:09:23;;;;;;;0.13;0.10;;;;;;;;;;5018056;28;20064;-65
2023/08/18 03:11:50;;;;;;;0.20;0.20;;;;;;;;;;5015829;28;20049;-65
2023/08/18 03:14:16;;;;;;;0.10;0.10;;;;;;;;;;5013349;28;20038;-64
2023/08/18 03:16:42;;;;;;;0.10;0.10;;;;;;;;;;5014977;28;20419;-64
2023/08/18 03:19:09;;;;;;;0.20;0.20;;;;;;;;;;5016970;28;20045;-64
2023/08/18 03:21:35;;;;;;;0.13;0.13;;;;;;;;;;5009519;28;20203;-64
2023/08/18 03:24:01;;;;;;;0.10;0.10;;;;;;;;;;5016126;28;20046;-64
2023/08/18 03:26:27;;;;;;;0.20;0.20;;;;;;;;;;5017367;28;20100;-64
2023/08/18 03:28:56;;;;;;;0.17;0.15;;;;;;;;;;5016821;28;20049;-64
2023/08/18 03:31:22;;;;;;;0.30;0.30;;;;;;;;;;5013891;28;20044;-64
2023/08/18 03:33:48;;;;;;;0.25;0.25;;;;;;;;;;5014467;28;20042;-64
2023/08/18 03:36:14;;;;;;;0.20;0.20;;;;;;;;;;5015645;28;20046;-64
2023/08/18 03:38:40;;;;;;;0.20;0.20;;;;;;;;;;5017324;28;20041;-64
2023/08/18 03:41:07;;;;;;;0.25;0.22;;;;;;;;;;5015836;28;20136;-65
2023/08/18 03:43:33;;;;;;;0.20;0.20;;;;;;;;;;5013200;28;20033;-64
2023/08/18 03:46:01;;;;;;;0.30;0.30;;;;;;;;;;5013419;28;20617;-64
2023/08/18 03:48:27;;;;;;;0.20;0.20;;;;;;;;;;5016469;28;20050;-64
2023/08/18 03:50:53;;;;;;;0.20;0.20;;;;;;;;;;5017046;28;20041;-64
2023/08/18 03:53:22;;;;;;;0.20;0.20;;;;;;;;;;5016297;28;20045;-65
2023/08/18 03:55:52;;;;;;;0.20;0.20;;;;;;;;;;5016857;28;20149;-65
2023/08/18 03:58:18;;;;;;;0.20;0.20;;;;;;;;;;5014330;28;20088;-65
2023/08/18 04:00:44;;;;;;;0.20;0.20;;;;;;;;;;5016427;28;20045;-65
2023/08/18 04:03:10;;;;;;;0.43;0.20;;;;;;;;;;5015746;28;20071;-65
2023/08/18 04:05:36;;;;;;;0.20;0.20;;;;;;;;;;5015477;28;20049;-64
2023/08/18 04:08:03;;;;;;;0.20;0.10;;;;;;;;;;5013672;28;20132;-65
2023/08/18 04:10:29;;;;;;;0.28;0.20;;;;;;;;;;5011882;28;20038;-64
2023/08/18 04:12:55;;;;;;;0.20;0.20;;;;;;;;;;5016294;28;20052;-64
2023/08/18 04:15:21;;;;;;;0.30;0.30;;;;;;;;;;5016742;28;20049;-64
2023/08/18 04:17:47;;;;;;;0.38;0.20;;;;;;;;;;5014551;28;20115;-65
2023/08/18 04:20:13;;;;;;;0.17;0.17;;;;;;;;;;5013075;28;20554;-65
2023/08/18 04:22:39;;;;;;;0.22;0.22;;;;;;;;;;5013026;28;20046;-65
2023/08/18 04:25:05;;;;;;;0.32;0.30;;;;;;;;;;5015236;28;20103;-64
2023/08/18 04:27:31;;;;;;;0.30;0.30;;;;;;;;;;5015941;28;20046;-64
2023/08/18 04:29:57;;;;;;;0.25;0.25;;;;;;;;;;5015347;28;20037;-64
2023/08/18 04:32:23;;;;;;;0.30;0.22;;;;;;;;;;5012642;28;20034;-64
2023/08/18 04:34:49;;;;;;;0.20;0.20;;;;;;;;;;5013752;28;20033;-65
2023/08/18 04:37:15;;;;;;;0.10;0.10;;;;;;;;;;5014998;28;20053;-65
2023/08/18 04:39:42;;;;;;;0.20;0.20;;;;;;;;;;5015722;28;20162;-65
2023/08/18 04:42:08;;;;;;;0.20;0.20;;;;;;;;;;5014894;28;20055;-65
2023/08/18 04:44:34;;;;;;;0.10;0.10;;;;;;;;;;5012934;28;20076;-65
2023/08/18 04:47:03;;;;;;;1.45;0.25;;;;;;;;;;5011881;28;20512;-65
2023/08/18 04:49:29;;;;;;;0.20;0.20;;;;;;;;;;5015123;28;20778;-65
2023/08/18 04:51:55;;;;;;;0.30;0.30;;;;;;;;;;5015950;28;20137;-65
2023/08/18 04:54:21;;;;;;;0.20;0.20;;;;;;;;;;5014791;28;20148;-65
2023/08/18 04:56:47;;;;;;;0.20;0.20;;;;;;;;;;5012347;28;20435;-65
2023/08/18 04:59:13;;;;;;;0.85;0.10;;;;;;;;;;5012556;28;20052;-65
2023/08/18 05:01:39;;;;;;;0.55;0.20;;;;;;;;;;5014982;28;20123;-65
2023/08/18 05:04:05;;;;;;;0.52;0.30;;;;;;;;;;5015416;28;20517;-65
2023/08/18 05:06:31;;;;;;;0.20;0.20;;;;;;;;;;5014282;28;20057;-65
2023/08/18 05:08:57;;;;;;;0.20;0.20;;;;;;;;;;5012623;28;20469;-65
2023/08/18 05:11:23;;;;;;;0.40;0.30;;;;;;;;;;5013020;28;20036;-65
2023/08/18 05:13:49;;;;;;;0.13;0.13;;;;;;;;;;5014637;28;20045;-65
2023/08/18 05:16:15;;;;;;;0.10;0.10;;;;;;;;;;5015676;28;20048;-65
2023/08/18 05:18:41;;;;;;;0.15;0.10;;;;;;;;;;5015434;28;20487;-65
2023/08/18 05:21:07;;;;;;;0.15;0.15;;;;;;;;;;5011834;28;20050;-65
2023/08/18 05:23:33;;;;;;;0.20;0.20;;;;;;;;;;5016119;28;20038;-65
2023/08/18 05:25:59;;;;;;;0.32;0.32;;;;;;;;;;5018428;28;20042;-65
2023/08/18 05:28:28;;;;;;;0.32;0.30;;;;;;;;;;5018819;28;20045;-64
2023/08/18 05:30:54;;;;;;;0.30;0.30;;;;;;;;;;5011794;28;20096;-64
2023/08/18 05:33:20;;;;;;;0.20;0.20;;;;;;;;;;5015580;28;20046;-64
2023/08/18 05:35:50;;;;;;;0.47;0.30;;;;;;;;;;5015797;28;20033;-64
2023/08/18 05:38:16;;;;;;;0.17;0.17;;;;;;;;;;5018259;28;20125;-65
2023/08/18 05:40:42;;;;;;;0.30;0.30;;;;;;;;;;5019461;28;20034;-65
2023/08/18 05:43:09;;;;;;;0.40;0.30;;;;;;;;;;5017706;28;20041;-65
2023/08/18 05:45:36;;;;;;;0.50;0.30;;;;;;;;;;5016139;28;20042;-65
2023/08/18 05:48:04;;;;;;;0.20;0.20;;;;;;;;;;5016053;28;20050;-64
2023/08/18 05:50:30;;;;;;;1.38;0.38;;;;;;;;;;5018397;28;20048;-64
2023/08/18 05:52:56;;;;;;;0.25;0.25;;;;;;;;;;5019325;28;20073;-64
2023/08/18 05:55:23;;;;;;;0.57;0.38;;;;;;;;;;5017711;28;20090;-64
2023/08/18 05:57:49;;;;;;;0.50;0.20;;;;;;;;;;5015466;28;20132;-64
2023/08/18 06:00:15;;;;;;;0.35;0.28;;;;;;;;;;5015873;28;20516;-64
2023/08/18 06:02:44;;;;;;;0.63;0.63;;;;;;;;;;5018046;28;20056;-64
2023/08/18 06:05:11;;;;;;;0.55;0.50;;;;;;;;;;5018681;28;20049;-65
2023/08/18 06:07:39;;;;;;;1.10;0.70;;;;;;;;;;5017288;28;20054;-65
2023/08/18 06:10:06;;;;;;;0.85;0.60;;;;;;;;;;5014540;28;20060;-64
2023/08/18 06:12:32;;;;;;;1.08;0.70;;;;;;;;;;5015697;28;20048;-64
2023/08/18 06:14:58;;;;;;;0.63;0.60;;;;;;;;;;5018923;28;20116;-64
2023/08/18 06:17:24;;;;;;;0.68;0.55;;;;;;;;;;5018138;28;20653;-64
2023/08/18 06:19:50;;;;;;;0.68;0.50;;;;;;;;;;5017222;28;20050;-64
2023/08/18 06:22:16;;;;;;;1.17;0.57;;;;;;;;;;5014864;28;20084;-65
2023/08/18 06:24:42;;;;;;;0.73;0.57;;;;;;;;;;5014944;28;20044;-65
2023/08/18 06:27:08;;;;;;;0.88;0.75;;;;;;;;;;5018683;28;20118;-64
2023/08/18 06:29:34;;;;;;;0.93;0.80;;;;;;;;;;5018413;28;20702;-64
2023/08/18 06:32:00;;;;;;;0.55;0.40;;;;;;;;;;5017589;28;20057;-64
2023/08/18 06:34:26;;;;;;;1.70;0.88;;;;;;;;;;5017109;28;20033;-64
2023/08/18 06:36:52;;;;;;;1.10;0.88;;;;;;;;;;5018537;28;20717;-64
2023/08/18 06:39:18;;;;;;;0.80;0.80;;;;;;;;;;5014227;28;20033;-64
2023/08/18 06:41:44;;;;;;;0.90;0.70;;;;;;;;;;5013502;28;20409;-64
2023/08/18 06:44:11;;;;;;;0.82;0.65;;;;;;;;;;5015859;28;20099;-64
2023/08/18 06:46:37;;;;;;;0.60;0.60;;;;;;;;;;5012895;28;20046;-65
2023/08/18 06:49:03;;;;;;;0.70;0.70;;;;;;;;;;5014726;28;20057;-64
2023/08/18 06:51:29;;;;;;;1.95;1.08;;;;;;;;;;5017274;28;20095;-64
2023/08/18 06:53:56;;;;;;;0.70;0.70;;;;;;;;;;5017490;28;20094;-64
2023/08/18 06:56:22;;;;;;;0.40;0.40;;;;;;;;;;5016479;28;20053;-64
2023/08/18 06:58:48;;;;;;;0.50;0.50;;;;;;;;;;5020437;28;20058;-64
2023/08/18 07:01:14;;;;;;;0.30;0.30;;;;;;;;;;5014880;28;20125;-64
2023/08/18 07:03:40;;;;;;;0.40;0.40;;;;;;;;;;5017539;28;20057;-66
2023/08/18 07:06:08;;;;;;;0.70;0.50;;;;;;;;;;5016864;28;20049;-65
2023/08/18 07:08:34;;;;;;;0.70;0.50;;;;;;;;;;5016776;28;20077;-65
2023/08/18 07:11:00;;;;;;;1.35;0.80;;;;;;;;;;5014648;28;20046;-65
2023/08/18 07:13:26;;;;;;;0.63;0.52;;;;;;;;;;5012753;28;20048;-65
2023/08/18 07:15:52;;;;;;;1.40;0.73;;;;;;;;;;5017112;28;20423;-65
2023/08/18 07:18:18;;;;;;;1.25;0.60;;;;;;;;;;5017001;28;20037;-65
2023/08/18 07:20:45;;;;;;;1.20;0.75;;;;;;;;;;5015768;28;20392;-64
2023/08/18 07:23:11;;;;;;;2.03;0.95;;;;;;;;;;5013945;28;20038;-64
2023/08/18 07:25:39;;;;;;;0.50;0.40;;;;;;;;;;5013999;28;20054;-64
2023/08/18 07:28:05;;;;;;;0.70;0.70;;;;;;;;;;5016046;28;20048;-64
2023/08/18 07:30:31;;;;;;;1.05;0.70;;;;;;;;;;5017150;28;20063;-64
2023/08/18 07:32:58;;;;;;;1.08;0.82;;;;;;;;;;5015755;28;20049;-64
2023/08/18 07:35:24;;;;;;;0.68;0.68;;;;;;;;;;5013739;28;20037;-64
2023/08/18 07:37:50;;;;;;;1.30;1.20;;;;;;;;;;5014082;28;20065;-64
2023/08/18 07:40:16;;;;;;;0.70;0.70;;;;;;;;;;5016274;28;20059;-64
2023/08/18 07:42:44;;;;;;;0.45;0.45;;;;;;;;;;5016772;28;20052;-64
2023/08/18 07:45:10;;;;;;;2.05;1.42;;;;;;;;;;5015917;28;20127;-65
2023/08/18 07:47:38;;;;;;;2.10;1.55;;;;;;;;;;5013961;28;20124;-65
2023/08/18 07:50:05;;;;;;;1.65;0.98;;;;;;;;;;5013450;28;20038;-65
2023/08/18 07:52:31;;;;;;;1.95;1.10;;;;;;;;;;5016465;28;20041;-65
2023/08/18 07:54:57;;;;;;;1.17;1.05;;;;;;;;;;5015195;28;20053;-64
2023/08/18 07:57:23;;;;;;;1.35;1.00;;;;;;;;;;5015102;28;20080;-64
2023/08/18 07:59:49;;;;;;;2.33;1.45;;;;;;;;;;5013454;28;20050;-64
2023/08/18 08:02:15;;;;;;;2.67;1.38;;;;;;;;;;5012549;28;20049;-64
2023/08/18 08:04:41;;;;;;;2.65;1.50;;;;;;;;;;5016327;28;20046;-65
2023/08/18 08:07:07;;;;;;;2.25;1.30;;;;;;;;;;5016574;28;20499;-65
2023/08/18 08:09:33;;;;;;;1.80;1.33;;;;;;;;;;5014953;28;20094;-64
2023/08/18 08:11:59;;;;;;;1.40;1.30;;;;;;;;;;5015896;28;20041;-64
2023/08/18 08:14:25;;;;;;;1.70;1.60;;;;;;;;;;5017719;28;20419;-65
2023/08/18 08:16:51;;;;;;;1.70;1.40;;;;;;;;;;5014730;28;20044;-65
2023/08/18 08:19:17;;;;;;;3.17;1.83;;;;;;;;;;5016592;28;20033;-65
2023/08/18 08:21:44;;;;;;;3.28;1.70;;;;;;;;;;5015724;28;20487;-65
2023/08/18 08:24:10;;;;;;;1.90;1.50;;;;;;;;;;5012200;28;20037;-65
2023/08/18 08:26:36;;;;;;;1.88;1.75;;;;;;;;;;5012962;28;20042;-65
2023/08/18 08:29:02;;;;;;;1.77;1.42;;;;;;;;;;5015159;28;20384;-65
2023/08/18 08:31:28;;;;;;;2.17;1.98;;;;;;;;;;5015426;28;20037;-65
2023/08/18 08:33:54;;;;;;;2.20;2.00;;;;;;;;;;5016309;28;20502;-65
2023/08/18 08:36:20;;;;;;;2.88;2.20;;;;;;;;;;5011170;28;20143;-65
2023/08/18 08:38:46;;;;;;;3.90;2.72;;;;;;;;;;5012722;28;20515;-65
2023/08/18 08:41:12;;;;;;;3.35;1.83;;;;;;;;;;5014975;28;20042;-65
2023/08/18 08:43:38;;;;;;;2.63;1.80;;;;;;;;;;5014719;28;20048;-65
2023/08/18 08:46:04;;;;;;;2.97;2.17;;;;;;;;;;5015021;28;20049;-65
2023/08/18 08:48:32;;;;;;;3.10;2.80;;;;;;;;;;5016439;28;20077;-65
2023/08/18 08:51:03;;;;;;;2.58;2.30;;;;;;;;;;5016416;28;20045;-65
2023/08/18 08:53:32;;;;;;;2.97;2.08;;;;;;;;;;5013085;28;20045;-65
2023/08/18 08:56:01;;;;;;;2.80;2.28;;;;;;;;;;5012700;28;20062;-65
2023/08/18 08:58:29;;;;;;;2.00;1.80;;;;;;;;;;5012877;28;20050;-65
2023/08/18 09:00:56;;;;;;;3.35;2.28;;;;;;;;;;5016194;28;20060;-65
2023/08/18 09:03:23;;;;;;;3.47;2.47;;;;;;;;;;5015552;28;20049;-65
2023/08/18 09:05:49;;;;;;;3.13;2.47;;;;;;;;;;5010214;28;20103;-65
2023/08/18 09:08:15;;;;;;;1.95;1.75;;;;;;;;;;5012360;28;20482;-65
2023/08/18 09:10:41;;;;;;;2.90;2.10;;;;;;;;;;5014110;28;20057;-65
2023/08/18 09:13:07;;;;;;;3.45;2.20;;;;;;;;;;5014817;28;20171;-65
2023/08/18 09:15:34;;;;;;;3.42;2.00;;;;;;;;;;5015554;28;20057;-65
2023/08/18 09:18:03;;;;;;;3.83;2.55;;;;;;;;;;5011473;28;20542;-65
2023/08/18 09:20:29;;;;;;;2.63;1.63;;;;;;;;;;5011884;28;20038;-65
2023/08/18 09:22:56;;;;;;;1.92;1.80;;;;;;;;;;5015231;28;20052;-65
2023/08/18 09:25:22;;;;;;;4.35;2.70;;;;;;;;;;5017044;28;20045;-65
2023/08/18 09:27:48;;;;;;;2.15;1.60;;;;;;;;;;5019924;28;20052;-65
2023/08/18 09:30:14;;;;;;;2.40;1.95;;;;;;;;;;5012264;28;20033;-65
2023/08/18 09:32:42;;;;;;;5.03;2.00;;;;;;;;;;5012552;28;20045;-65
2023/08/18 09:35:11;;;;;;;4.15;2.30;;;;;;;;;;5013969;28;20046;-65
2023/08/18 09:37:37;;;;;;;2.15;1.52;;;;;;;;;;5015457;28;20049;-65
2023/08/18 09:40:04;;;;;;;2.13;1.27;;;;;;;;;;5014138;28;20053;-65
2023/08/18 09:42:30;;;;;;;2.72;1.50;;;;;;;;;;5011598;28;20412;-65
2023/08/18 09:44:56;;;;;;;1.40;1.27;;;;;;;;;;5012859;28;20106;-65
2023/08/18 09:47:23;;;;;;;2.92;1.70;;;;;;;;;;5014897;28;20064;-65
2023/08/18 09:49:51;;;;;;;2.17;1.60;;;;;;;;;;5009026;28;20050;-65
2023/08/18 09:52:17;;;;;;;2.65;1.52;;;;;;;;;;5013481;28;20042;-65
2023/08/18 09:54:55;;;;;;;1.70;1.05;;;;;;;;;;5014941;28;20049;-65
2023/08/18 09:57:31;;;;;;;2.50;1.67;;;;;;;;;;5013588;28;20136;-65
2023/08/18 09:59:59;;;;;;;2.60;1.38;;;;;;;;;;5012294;28;20103;-65
2023/08/18 10:02:34;;;;;;;2.25;1.55;;;;;;;;;;5012525;28;20147;-65
2023/08/18 10:05:01;;;;;;;1.98;1.40;;;;;;;;;;5015267;28;20080;-64
2023/08/18 10:07:28;;;;;;;1.85;1.38;;;;;;;;;;5015260;28;20042;-64
2023/08/18 10:09:55;;;;;;;2.03;1.50;;;;;;;;;;5014450;28;20458;-64
2023/08/18 10:12:21;;;;;;;1.85;1.75;;;;;;;;;;5015529;28;20045;-64
2023/08/18 10:14:48;;;;;;;1.65;1.55;;;;;;;;;;5017817;28;20071;-64
2023/08/18 10:17:15;;;;;;;3.30;1.80;;;;;;;;;;5016212;28;20041;-64
2023/08/18 10:20:00;;;;;;;1.50;1.40;;;;;;;;;;5017606;28;20100;-65
2023/08/18 10:22:27;;;;;;;2.33;1.85;;;;;;;;;;5016170;28;20045;-65
2023/08/18 10:24:54;;;;;;;2.78;1.75;;;;;;;;;;5016950;28;20052;-65
2023/08/18 10:27:29;;;;;;;2.85;2.50;;;;;;;;;;5018176;28;20716;-65
2023/08/18 10:29:57;;;;;;;2.00;1.90;;;;;;;;;;5017244;28;20476;-65
2023/08/18 10:32:24;;;;;;;1.75;1.65;;;;;;;;;;5015567;28;20049;-65
2023/08/18 10:34:50;;;;;;;1.75;1.58;;;;;;;;;;5015686;28;20061;-65
2023/08/18 10:37:17;;;;;;;2.15;1.95;;;;;;;;;;5017815;28;20041;-65
2023/08/18 10:39:44;;;;;;;3.38;1.90;;;;;;;;;;5018186;28;20083;-65
2023/08/18 10:42:15;;;;;;;2.83;1.73;;;;;;;;;;5014699;28;20499;-65
2023/08/18 10:44:59;;;;;;;2.22;1.90;;;;;;;;;;5014303;28;20046;-65
2023/08/18 10:47:29;;;;;;;2.70;1.50;;;;;;;;;;5017963;28;20045;-65
2023/08/18 10:49:55;;;;;;;2.30;2.10;;;;;;;;;;5018686;28;20092;-65
2023/08/18 10:52:22;;;;;;;2.08;1.98;;;;;;;;;;5015366;28;20114;-65
2023/08/18 10:54:48;;;;;;;2.17;1.98;;;;;;;;;;5015049;28;20057;-65
2023/08/18 10:57:14;;;;;;;1.73;1.55;;;;;;;;;;5014286;28;20053;-65
2023/08/18 10:59:40;;;;;;;2.25;1.73;;;;;;;;;;5017527;28;20158;-65
2023/08/18 11:02:07;;;;;;;1.40;1.05;;;;;;;;;;5017829;28;20095;-65
2023/08/18 11:04:33;;;;;;;1.20;1.10;;;;;;;;;;5016422;28;20053;-65
2023/08/18 11:06:59;;;;;;;1.45;1.35;;;;;;;;;;5014147;28;20042;-65
2023/08/18 11:09:25;;;;;;;1.20;1.10;;;;;;;;;;5014369;28;20046;-65
2023/08/18 11:11:51;;;;;;;1.88;1.77;;;;;;;;;;5017606;28;20124;-65
2023/08/18 11:14:17;;;;;;;1.33;1.23;;;;;;;;;;5017109;28;20474;-65
2023/08/18 11:16:43;;;;;;;1.25;1.17;;;;;;;;;;5016171;28;20052;-65
2023/08/18 11:19:09;;;;;;;1.80;1.70;;;;;;;;;;5013495;28;20037;-65
2023/08/18 11:21:35;;;;;;;1.17;1.08;;;;;;;;;;5014044;28;20041;-65
2023/08/18 11:24:04;;;;;;;1.52;1.42;;;;;;;;;;5016822;28;20098;-65
2023/08/18 11:26:30;;;;;;;1.60;1.50;;;;;;;;;;5016712;28;20041;-65
2023/08/18 11:28:57;;;;;;;1.80;1.38;;;;;;;;;;5016380;28;20037;-65
2023/08/18 11:31:23;;;;;;;2.67;1.48;;;;;;;;;;5014728;28;20678;-65
2023/08/18 11:33:49;;;;;;;0.95;0.90;;;;;;;;;;5014078;28;20038;-65
2023/08/18 11:36:15;;;;;;;1.52;1.42;;;;;;;;;;5016964;28;20041;-65
2023/08/18 11:38:41;;;;;;;1.33;1.23;;;;;;;;;;5016973;28;20045;-65
2023/08/18 11:41:07;;;;;;;2.33;1.70;;;;;;;;;;5007698;28;20652;-65
2023/08/18 11:43:34;;;;;;;1.50;1.40;;;;;;;;;;5017089;28;20041;-65
2023/08/18 11:46:00;;;;;;;2.70;2.50;;;;;;;;;;5016779;28;20636;-65
2023/08/18 11:48:29;;;;;;;1.85;1.75;;;;;;;;;;5016926;28;20041;-65
2023/08/18 11:50:56;;;;;;;3.38;1.70;;;;;;;;;;5017366;28;20056;-65
2023/08/18 11:53:24;;;;;;;2.03;1.92;;;;;;;;;;5014697;28;20503;-65
2023/08/18 11:55:50;;;;;;;1.67;1.58;;;;;;;;;;5013156;28;20080;-65
2023/08/18 11:58:16;;;;;;;1.77;1.67;;;;;;;;;;5013894;28;20089;-65
2023/08/18 12:00:44;;;;;;;3.30;3.00;;;;;;;;;;5016603;28;20068;-65
2023/08/18 12:03:36;;;;;;;2.38;2.22;;;;;;;;;;5015867;28;20709;-65
2023/08/18 12:06:02;;;;;;;2.10;2.00;;;;;;;;;;5011313;28;20622;-65
2023/08/18 12:08:29;;;;;;;2.17;2.08;;;;;;;;;;5013082;28;20045;-65
2023/08/18 12:10:57;;;;;;;2.17;2.08;;;;;;;;;;5014050;28;20467;-65
2023/08/18 12:13:23;;;;;;;5.57;2.90;;;;;;;;;;5013408;28;20103;-65
2023/08/18 12:15:49;;;;;;;3.58;3.28;;;;;;;;;;5016241;28;20056;-65
2023/08/18 12:18:15;;;;;;;2.55;2.40;;;;;;;;;;5018054;28;20038;-65
2023/08/18 12:20:41;;;;;;;2.67;2.47;;;;;;;;;;5017289;28;20471;-65
2023/08/18 12:23:08;;;;;;;2.60;2.40;;;;;;;;;;5014059;28;20057;-65
2023/08/18 12:25:34;;;;;;;1.92;1.83;;;;;;;;;;5013951;28;20044;-65
2023/08/18 12:28:00;;;;;;;1.80;1.70;;;;;;;;;;5015557;28;20037;-65
2023/08/18 12:30:26;;;;;;;1.70;1.60;;;;;;;;;;5016016;28;20529;-65
2023/08/18 12:32:52;;;;;;;2.22;2.13;;;;;;;;;;5015192;28;20087;-65
2023/08/18 12:35:18;;;;;;;1.63;1.52;;;;;;;;;;5012630;28;20045;-65
2023/08/18 12:37:44;;;;;;;2.22;2.03;;;;;;;;;;5012346;28;20525;-65
2023/08/18 12:40:11;;;;;;;1.52;1.42;;;;;;;;;;5014815;28;20064;-65
2023/08/18 12:42:38;;;;;;;1.75;1.65;;;;;;;;;;5016142;28;20041;-65
2023/08/18 12:45:04;;;;;;;1.80;1.70;;;;;;;;;;5014784;28;20045;-65
2023/08/18 12:47:30;;;;;;;1.80;1.70;;;;;;;;;;5012925;28;20038;-65
2023/08/18 12:49:56;;;;;;;2.15;2.05;;;;;;;;;;5013406;28;20483;-65
2023/08/18 12:52:22;;;;;;;2.92;1.80;;;;;;;;;;5012643;28;20065;-65
2023/08/18 12:54:49;;;;;;;2.33;1.90;;;;;;;;;;5017126;28;20129;-65
2023/08/18 12:57:15;;;;;;;2.22;2.13;;;;;;;;;;5012436;28;20111;-65
2023/08/18 12:59:41;;;;;;;3.00;2.70;;;;;;;;;;5015324;28;20060;-65
2023/08/18 13:02:07;;;;;;;2.40;2.30;;;;;;;;;;5015762;28;20037;-65
2023/08/18 13:04:34;;;;;;;2.80;2.60;;;;;;;;;;5013364;28;20099;-65
2023/08/18 13:07:00;;;;;;;2.13;2.03;;;;;;;;;;5012919;28;20037;-65
2023/08/18 13:09:27;;;;;;;2.67;2.10;;;;;;;;;;5013385;28;20765;-65
2023/08/18 13:11:56;;;;;;;2.30;2.10;;;;;;;;;;5015102;28;20107;-65
2023/08/18 13:14:22;;;;;;;2.20;2.00;;;;;;;;;;5015837;28;20103;-65
2023/08/18 13:16:52;;;;;;;2.45;2.25;;;;;;;;;;5013352;28;20519;-65
2023/08/18 13:19:19;;;;;;;1.30;1.20;;;;;;;;;;5011878;28;20046;-65
2023/08/18 13:21:45;;;;;;;1.70;1.60;;;;;;;;;;5013808;28;20114;-65
2023/08/18 13:24:11;;;;;;;2.15;2.00;;;;;;;;;;5015548;28;20645;-65
2023/08/18 13:26:39;;;;;;;1.92;1.58;;;;;;;;;;5014913;28;20041;-65
2023/08/18 13:29:05;;;;;;;2.17;1.92;;;;;;;;;;5012004;28;20348;-65
2023/08/18 13:31:31;;;;;;;2.50;1.55;;;;;;;;;;5012305;28;20050;-65
2023/08/18 13:33:57;;;;;;;1.58;1.48;;;;;;;;;;5013368;28;20746;-65
2023/08/18 13:36:23;;;;;;;1.25;1.15;;;;;;;;;;5015772;28;20430;-65
2023/08/18 13:38:49;;;;;;;1.50;1.40;;;;;;;;;;5015898;28;20050;-65
2023/08/18 13:41:16;;;;;;;1.60;1.50;;;;;;;;;;5019736;28;20048;-65
2023/08/18 13:43:42;;;;;;;1.52;1.42;;;;;;;;;;5014241;28;20046;-65
2023/08/18 13:46:08;;;;;;;1.90;1.80;;;;;;;;;;5016970;28;20054;-65
2023/08/18 13:48:34;;;;;;;2.05;1.95;;;;;;;;;;5018795;28;20047;-65
2023/08/18 13:51:01;;;;;;;2.13;1.48;;;;;;;;;;5019349;28;20088;-65
2023/08/18 13:53:30;;;;;;;2.03;1.92;;;;;;;;;;5016880;28;20061;-65
2023/08/18 13:55:56;;;;;;;2.35;2.15;;;;;;;;;;5016106;28;20073;-65
2023/08/18 13:58:22;;;;;;;1.70;1.60;;;;;;;;;;5017021;28;20053;-65
2023/08/18 14:00:48;;;;;;;2.58;2.33;;;;;;;;;;5018859;28;20045;-65
2023/08/18 14:03:14;;;;;;;2.95;1.77;;;;;;;;;;5019017;28;20711;-65
2023/08/18 14:05:43;;;;;;;1.58;1.48;;;;;;;;;;5015996;28;20046;-65
2023/08/18 14:08:09;;;;;;;1.60;1.50;;;;;;;;;;5014964;28;20088;-65
2023/08/18 14:10:36;;;;;;;2.60;2.40;;;;;;;;;;5017769;28;20436;-65
2023/08/18 14:13:03;;;;;;;2.88;2.67;;;;;;;;;;5018604;28;20099;-65
2023/08/18 14:15:29;;;;;;;3.05;2.80;;;;;;;;;;5018540;28;20069;-65
2023/08/18 14:17:55;;;;;;;2.63;2.42;;;;;;;;;;5023881;28;20534;-65
2023/08/18 14:20:22;;;;;;;2.20;2.10;;;;;;;;;;5015273;28;20069;-65
2023/08/18 14:22:50;;;;;;;2.53;2.13;;;;;;;;;;5016494;28;20042;-65
2023/08/18 14:25:17;;;;;;;2.20;2.10;;;;;;;;;;5018569;28;20049;-65
2023/08/18 14:27:43;;;;;;;2.40;2.20;;;;;;;;;;5018405;28;20041;-65
2023/08/18 14:30:09;;;;;;;2.83;2.22;;;;;;;;;;5014729;28;20042;-65
2023/08/18 14:32:36;;;;;;;2.83;2.58;;;;;;;;;;5015637;28;20056;-65
2023/08/18 14:35:04;;;;;;;2.47;2.28;;;;;;;;;;5017046;28;20055;-65
2023/08/18 14:37:31;;;;;;;2.30;2.10;;;;;;;;;;5018014;28;20045;-65
2023/08/18 14:39:57;;;;;;;2.20;2.10;;;;;;;;;;5017968;28;20048;-65